Airfield :
LOGIN :

Register | Disclaimer

   EN    FR    IT 

 










Legend :    VFR   Marginal VFR   IFR   Intensive IFR   Very Intensive IFR
Visi :
Ceiling :
>= 8 km
>= 3000ft
5 to 8 km
1000 to 3000 ft
1500m to 5 km
500 to 1000 ft
800 to 1500m
200 to 500 ft
< 800m
< 200 ft
Symbols :   Thunderstorms  Fog  Heavy snow  Heavy precipitations  Wind > 20 kt
SIGMETs :     Misc.  Thunderstorms  Icing  Turbulence  Mountain Waves  Volcanic Ashes






- Airport Elevation : 622 ft
- IATA code : BRS


EGGD - Bristol Int.

CURRENT METAR :
  • 080350Z AUTO 25021G33KT 9999 -RA BKN025/// BKN037/// OVC046/// //////TCU 05/02 Q0985

EXPIRED METARs :
  • 080320Z AUTO 24017KT 9999 SCT024/// BKN041/// //////CB 05/03 Q0984 RERA
  • 080250Z AUTO 25021G31KT 9999 SCT029/// BKN047/// //////TCU 06/02 Q0984
  • 080220Z AUTO 25020G30KT 9999 BKN028/// BKN039/// //////TCU 06/02 Q0984
  • 080150Z AUTO 24018KT 9999 BKN022/// OVC032/// //////TCU 05/03 Q0983 RERA
  • 080120Z AUTO 25022KT 4300 RA BKN020 BKN027 OVC047 05/03 Q0983

TAF TAF EGGD
Valid from the 08 at 00:00 until the 09 at 00:00 UTC


072301Z 0800/0824 20016G26KT 9999 SCT025
BECMG 0800/0803 23020G35KT
TEMPO 0800/0807 6000 SHRA
PROB30
TEMPO 0800/0807 1400 +SHRA BKN010CB
BECMG 0803/0806 26020G35KT
PROB30
TEMPO 0804/0812 26026G45KT
TEMPO 0809/0821 4000 RA SHRA BKN008
ATIS : +44 1275 473 666



MET'MAP, your aeronautical weather chart ! - Copyright ORBIFLY December 2007 - Disclaimer

ORBIFLY MET'MAP TEAM :

Programming & Development : Alexandra Zaïnal
Concept & original design : Baudouin d'Aumeries
Assistance for programming : Marc-Olivier Méhu
Technical & hardware support : Manuel Goepfert

Contact : metmap@orbifly.com




SOURCES & CREDITS :

   NOAA